Time;durP1;ratioP1;P1;durP2;ratioP2;P2;SDS_P1;SDS_P2;PMS_P1;PMS_P2;Temp;Humidity;BMP_temperature;BMP_pressure;BME280_temperature;BME280_humidity;BME280_pressure;Samples;Min_cycle;Max_cycle;Signal;HPM_P1;HPM_P2
2022/02/01 00:02:31;;;;;;;12.90;6.30;;;;;;;1.91;86.34;100482.94;8603522;33;20967;-76
2022/02/01 00:07:42;;;;;;;12.45;5.55;;;;;;;1.93;86.67;100494.34;8603018;33;20475;-75
2022/02/01 00:12:56;;;;;;;10.38;4.90;;;;;;;1.99;86.44;100477.31;8602720;33;20440;-74
2022/02/01 00:18:18;;;;;;;9.18;4.28;;;;;;;1.72;87.08;100490.81;8599170;33;20489;-75
2022/02/01 00:34:15;;;;;;;15.02;4.90;;;;;;;1.92;85.93;100490.84;8597969;33;20424;-76
2022/02/01 00:39:19;;;;;;;13.65;4.25;;;;;;;2.11;85.32;100490.00;8603624;33;20850;-75
2022/02/01 00:44:25;;;;;;;16.50;4.20;;;;;;;2.10;85.21;100494.44;8615653;33;20144;-75
2022/02/01 00:49:29;;;;;;;12.32;3.67;;;;;;;1.57;85.87;100488.84;8619199;33;20183;-75
2022/02/01 00:54:33;;;;;;;14.80;4.93;;;;;;;1.45;86.18;100487.53;8624668;33;20542;-76
2022/02/01 00:59:37;;;;;;;10.35;4.03;;;;;;;1.61;85.35;100503.66;8582640;33;20429;-75
2022/02/01 01:04:41;;;;;;;11.07;3.60;;;;;;;1.84;84.49;100508.84;8605741;33;21198;-76
2022/02/01 01:09:44;;;;;;;11.82;3.58;;;;;;;1.71;84.85;100497.91;8603375;33;20244;-75
2022/02/01 01:15:07;;;;;;;7.60;3.17;;;;;;;1.48;85.46;100512.13;8603387;33;20475;-75
2022/02/01 01:57:40;;;;;;;14.70;4.38;;;;;;;1.39;83.34;100568.06;8598055;33;21010;-76
2022/02/01 02:02:44;;;;;;;14.43;4.45;;;;;;;1.35;82.33;100544.44;8598980;33;20437;-74
2022/02/01 02:07:49;;;;;;;14.88;4.15;;;;;;;0.95;81.31;100530.13;8599073;33;20155;-75
2022/02/01 02:12:58;;;;;;;26.90;4.68;;;;;;;1.25;80.87;100531.56;8602215;33;20569;-77
2022/02/01 02:18:04;;;;;;;10.50;2.50;;;;;;;0.91;80.20;100552.34;8603549;33;20486;-74
2022/02/01 02:23:10;;;;;;;17.63;4.25;;;;;;;1.08;80.01;100544.59;8601635;33;20205;-75
2022/02/01 02:28:15;;;;;;;19.10;3.88;;;;;;;1.06;79.70;100541.16;8576837;33;20151;-75
2022/02/01 02:33:19;;;;;;;16.27;4.63;;;;;;;0.54;79.57;100553.69;8604165;33;20526;-74
2022/02/01 02:38:33;;;;;;;11.57;3.30;;;;;;;0.86;78.84;100549.00;8603908;33;20206;-74
2022/02/01 02:48:56;;;;;;;8.37;3.40;;;;;;;0.90;78.40;100551.44;8603016;33;20167;-75
2022/02/01 02:54:04;;;;;;;15.23;3.90;;;;;;;0.76;77.54;100545.84;8603434;33;20917;-75
2022/02/01 02:59:07;;;;;;;12.55;2.90;;;;;;;0.64;77.34;100549.81;8602568;33;20143;-75
2022/02/01 03:04:10;;;;;;;13.18;3.00;;;;;;;0.66;76.76;100547.09;8603008;33;20178;-75
2022/02/01 03:09:16;;;;;;;11.73;3.58;;;;;;;0.55;76.65;100545.72;8599913;33;20196;-75
2022/02/01 03:14:25;;;;;;;8.90;3.28;;;;;;;0.54;76.39;100575.72;8596171;33;20409;-75
2022/02/01 03:24:50;;;;;;;13.70;3.87;;;;;;;0.69;76.32;100558.44;8586177;33;20453;-75
2022/02/01 03:29:54;;;;;;;9.35;2.70;;;;;;;0.67;76.92;100533.81;8613707;33;20476;-75
2022/02/01 03:34:57;;;;;;;6.20;2.20;;;;;;;0.33;77.23;100540.38;8605740;33;20632;-75
2022/02/01 03:40:01;;;;;;;11.60;3.67;;;;;;;0.32;77.95;100543.06;8600802;33;20186;-75
2022/02/01 03:45:05;;;;;;;13.50;3.53;;;;;;;0.60;78.02;100538.50;8574093;33;20415;-75
2022/02/01 03:50:09;;;;;;;10.93;3.77;;;;;;;0.54;78.97;100553.69;8597729;33;20902;-75
2022/02/01 03:55:14;;;;;;;11.53;3.37;;;;;;;0.53;78.67;100557.28;8600673;33;20529;-75
2022/02/01 04:00:17;;;;;;;10.50;3.70;;;;;;;0.38;79.58;100574.53;8600602;33;20402;-75
2022/02/01 04:05:21;;;;;;;11.40;4.23;;;;;;;0.43;79.49;100569.94;8602214;33;20228;-75
2022/02/01 04:10:26;;;;;;;7.85;2.92;;;;;;;0.79;79.03;100546.56;8600682;33;20424;-75
2022/02/01 04:15:29;;;;;;;8.68;2.15;;;;;;;0.60;79.31;100529.69;8599954;33;20195;-75
2022/02/01 04:20:32;;;;;;;11.77;3.50;;;;;;;0.59;79.90;100520.03;8599090;33;20218;-74
2022/02/01 04:25:36;;;;;;;7.00;2.97;;;;;;;0.35;80.34;100512.06;8581131;33;20475;-75
2022/02/01 04:30:39;;;;;;;8.20;3.23;;;;;;;0.38;81.03;100505.81;8615262;33;22602;-75
2022/02/01 04:35:43;;;;;;;6.25;2.30;;;;;;;0.34;81.74;100496.31;8608591;33;20420;-74
2022/02/01 04:40:52;;;;;;;10.75;3.22;;;;;;;0.34;82.08;100489.22;8602234;33;20835;-74
2022/02/01 04:45:55;;;;;;;20.27;3.60;;;;;;;0.21;83.74;100493.22;8601754;33;20409;-75
2022/02/01 04:50:59;;;;;;;5.70;2.53;;;;;;;0.28;83.60;100509.75;8600768;33;20650;-74
2022/02/01 04:56:03;;;;;;;12.53;3.70;;;;;;;0.27;84.27;100545.00;8600076;33;20158;-74
2022/02/01 05:01:08;;;;;;;20.73;4.10;;;;;;;0.44;83.89;100499.44;8603831;33;20488;-75
2022/02/01 05:06:12;;;;;;;5.97;2.30;;;;;;;0.24;84.66;100529.25;8606877;33;20452;-75
2022/02/01 05:11:17;;;;;;;11.17;2.63;;;;;;;0.49;83.67;100516.00;8605889;33;20190;-75
2022/02/01 05:16:24;;;;;;;10.98;3.53;;;;;;;0.58;84.19;100516.53;8606554;33;21987;-75
2022/02/01 05:21:27;;;;;;;6.57;3.07;;;;;;;0.51;83.67;100509.75;8600539;33;20412;-75
2022/02/01 05:26:32;;;;;;;7.80;3.57;;;;;;;0.51;84.28;100528.25;8599935;33;20431;-75
2022/02/01 05:31:35;;;;;;;8.80;3.65;;;;;;;0.75;83.68;100526.47;8599364;33;20392;-75
2022/02/01 05:36:38;;;;;;;8.43;3.15;;;;;;;0.73;83.98;100538.03;8576068;33;20480;-76
2022/02/01 05:41:43;;;;;;;7.68;2.72;;;;;;;0.75;84.17;100520.31;8601630;33;20490;-75
2022/02/01 05:46:46;;;;;;;13.80;3.85;;;;;;;0.80;83.38;100532.44;8602451;33;20941;-74
2022/02/01 05:51:50;;;;;;;12.80;3.75;;;;;;;1.21;82.94;100513.25;8605410;33;20405;-76
2022/02/01 05:56:54;;;;;;;6.75;3.45;;;;;;;1.02;83.25;100518.41;8583150;33;20182;-75
2022/02/01 06:01:59;;;;;;;11.32;3.08;;;;;;;1.02;83.21;100511.31;8607110;33;20468;-75
2022/02/01 06:07:04;;;;;;;11.40;3.13;;;;;;;0.96;83.62;100514.22;8609944;33;20421;-75
2022/02/01 06:12:09;;;;;;;8.90;3.08;;;;;;;0.91;83.58;100484.44;8606495;33;20188;-76
2022/02/01 06:17:13;;;;;;;11.07;3.40;;;;;;;1.07;83.56;100468.81;8606930;33;20599;-76
2022/02/01 06:22:16;;;;;;;9.77;2.88;;;;;;;1.06;82.72;100460.00;8606006;33;20187;-75
2022/02/01 06:27:21;;;;;;;17.45;5.63;;;;;;;1.10;82.84;100451.94;8581441;33;20420;-74
2022/02/01 06:32:37;;;;;;;13.32;3.03;;;;;;;0.93;83.83;100439.38;8607552;33;20155;-75
2022/02/01 06:37:40;;;;;;;7.25;3.65;;;;;;;0.99;82.73;100450.59;8605102;33;20182;-76
2022/02/01 06:42:44;;;;;;;10.80;2.33;;;;;;;0.92;83.35;100442.97;8605766;33;20183;-74
2022/02/01 06:47:47;;;;;;;11.70;3.30;;;;;;;0.95;82.56;100461.34;8612591;33;20439;-74
2022/02/01 06:52:55;;;;;;;11.10;3.63;;;;;;;1.01;83.42;100484.91;8611347;33;20453;-75
2022/02/01 06:58:00;;;;;;;5.57;2.37;;;;;;;1.23;82.33;100487.56;8557220;33;20417;-74
2022/02/01 07:03:04;;;;;;;7.40;2.45;;;;;;;1.10;82.55;100467.78;8601994;33;20428;-76
2022/02/01 07:08:07;;;;;;;8.35;2.75;;;;;;;1.17;82.31;100440.19;8602030;33;20453;-74
2022/02/01 07:13:12;;;;;;;7.10;2.65;;;;;;;1.17;81.97;100458.69;8602796;33;20902;-75
2022/02/01 07:18:15;;;;;;;17.00;4.60;;;;;;;1.19;81.99;100473.59;8606700;33;20227;-75
2022/02/01 07:23:22;;;;;;;7.45;4.28;;;;;;;1.50;81.03;100496.16;8601321;33;20595;-76
2022/02/01 07:28:29;;;;;;;9.93;3.58;;;;;;;1.29;81.15;100484.69;8598968;33;20416;-75
2022/02/01 07:33:32;;;;;;;14.75;4.65;;;;;;;1.33;81.45;100451.84;8596098;33;20198;-77
2022/02/01 07:38:35;;;;;;;12.25;3.83;;;;;;;1.44;81.32;100435.53;8596543;33;20187;-77
2022/02/01 07:43:40;;;;;;;6.25;2.80;;;;;;;1.38;81.25;100430.50;8593992;33;20672;-76
2022/02/01 07:48:43;;;;;;;8.10;3.10;;;;;;;1.60;80.51;100417.19;8596473;33;20409;-77
2022/02/01 07:53:48;;;;;;;12.57;3.13;;;;;;;1.43;81.17;100404.69;8596215;33;20166;-76
2022/02/01 07:58:52;;;;;;;4.90;1.77;;;;;;;1.40;80.92;100403.03;8594172;33;20151;-76
2022/02/01 08:03:55;;;;;;;9.25;2.97;;;;;;;1.41;81.14;100388.88;8593799;33;20957;-77
2022/02/01 08:09:04;;;;;;;6.13;2.90;;;;;;;1.53;80.61;100384.81;8595382;33;20403;-76
2022/02/01 08:19:38;;;;;;;8.20;3.67;;;;;;;1.36;80.64;100351.13;8606275;33;20556;-76
2022/02/01 08:24:41;;;;;;;9.55;4.47;;;;;;;1.46;80.00;100360.41;8605605;33;20633;-76
2022/02/01 08:29:45;;;;;;;8.05;4.22;;;;;;;1.52;79.35;100342.53;8605245;33;20673;-77
2022/02/01 08:34:48;;;;;;;8.85;5.75;;;;;;;1.87;78.70;100323.28;8612914;33;20401;-76
2022/02/01 08:39:52;;;;;;;18.23;5.43;;;;;;;1.53;79.57;100317.78;8618963;33;20913;-75
2022/02/01 08:44:56;;;;;;;12.68;5.68;;;;;;;1.83;79.66;100310.22;8609561;33;20204;-77
2022/02/01 08:49:59;;;;;;;13.10;7.22;;;;;;;1.71;80.17;100307.22;8582317;33;20423;-76
2022/02/01 08:55:05;;;;;;;12.85;6.50;;;;;;;1.82;79.71;100288.19;8607704;33;20414;-77
2022/02/01 09:00:15;;;;;;;9.57;6.80;;;;;;;1.76;80.72;100271.72;8601692;33;20565;-76
2022/02/01 09:05:18;;;;;;;13.37;5.63;;;;;;;1.77;80.08;100265.50;8601061;33;20645;-76
2022/02/01 09:10:22;;;;;;;15.27;8.30;;;;;;;1.92;80.77;100252.41;8621426;33;20424;-77
2022/02/01 09:15:28;;;;;;;11.68;7.97;;;;;;;1.86;81.68;100226.19;8602682;33;21536;-75
2022/02/01 09:20:31;;;;;;;21.50;8.02;;;;;;;1.70;83.45;100199.59;8598417;33;20440;-76
2022/02/01 09:25:35;;;;;;;19.52;11.75;;;;;;;1.68;84.56;100182.91;8597273;33;20437;-76
2022/02/01 09:30:40;;;;;;;22.08;9.55;;;;;;;1.47;85.61;100166.22;8571725;33;20551;-76
2022/02/01 09:35:43;;;;;;;16.70;10.15;;;;;;;1.50;85.80;100160.78;8598919;33;20234;-76
2022/02/01 09:40:46;;;;;;;20.42;11.50;;;;;;;1.59;86.21;100132.16;8575243;33;20147;-77
2022/02/01 09:45:54;;;;;;;19.13;6.88;;;;;;;1.10;88.11;100121.22;8573420;33;20189;-76
2022/02/01 09:51:18;;;;;;;11.77;7.82;;;;;;;1.34;88.06;100119.22;8595758;33;21078;-77
2022/02/01 09:56:37;;;;;;;18.23;10.17;;;;;;;1.10;89.28;100119.44;8590210;33;20409;-77
2022/02/01 10:01:46;;;;;;;16.00;7.82;;;;;;;1.10;89.69;100078.88;8594055;33;20498;-77
2022/02/01 10:06:50;;;;;;;14.27;8.30;;;;;;;1.15;90.00;100059.25;8597861;33;20128;-75
2022/02/01 10:12:16;;;;;;;13.45;7.22;;;;;;;1.08;90.46;100052.53;8608963;33;20202;-76
2022/02/01 10:17:28;;;;;;;9.85;5.90;;;;;;;1.55;89.17;100049.38;8618249;33;20175;-76
2022/02/01 10:22:34;;;;;;;18.70;9.93;;;;;;;1.36;90.42;100043.25;8573468;33;21282;-76
2022/02/01 10:27:42;;;;;;;15.60;8.25;;;;;;;1.38;91.53;100014.94;8608727;33;20500;-77
2022/02/01 10:33:12;;;;;;;18.13;10.25;;;;;;;1.42;91.88;100012.06;8597883;33;20189;-75
2022/02/01 10:38:18;;;;;;;8.73;5.38;;;;;;;1.56;91.54;100005.22;8593037;33;20403;-77
2022/02/01 10:43:24;;;;;;;20.27;10.95;;;;;;;2.00;91.06;99967.69;8595079;33;20977;-75
2022/02/01 10:48:29;;;;;;;16.05;7.70;;;;;;;1.64;92.42;99961.53;8594797;33;20202;-76
2022/02/01 10:53:33;;;;;;;16.52;8.95;;;;;;;1.76;92.90;99949.50;8596496;33;20186;-76
2022/02/01 10:58:36;;;;;;;15.57;7.50;;;;;;;1.59;93.60;99938.88;8569875;33;20250;-75
2022/02/01 11:03:45;;;;;;;19.80;11.02;;;;;;;1.89;96.00;99923.19;8596676;33;20586;-76
2022/02/01 11:08:48;;;;;;;12.70;8.25;;;;;;;2.00;98.27;99920.00;8573418;33;20139;-76
2022/02/01 11:13:56;;;;;;;11.85;6.88;;;;;;;2.17;94.88;99933.22;8604136;33;20838;-76
2022/02/01 11:19:07;;;;;;;22.38;8.13;;;;;;;2.03;94.25;99931.31;8601124;33;20528;-76
2022/02/01 11:24:22;;;;;;;8.70;5.13;;;;;;;2.10;93.89;99911.47;8602385;33;20466;-77
2022/02/01 11:29:38;;;;;;;10.48;7.00;;;;;;;2.33;93.27;99912.91;8595178;33;20424;-75
2022/02/01 11:34:42;;;;;;;9.32;5.65;;;;;;;2.09;94.00;99870.03;8581789;33;20428;-77
2022/02/01 11:39:50;;;;;;;6.68;4.18;;;;;;;2.21;94.17;99851.75;8600198;33;20421;-77
2022/02/01 11:45:02;;;;;;;8.82;5.18;;;;;;;2.12;94.20;99856.59;8601818;33;20403;-77
2022/02/01 11:50:15;;;;;;;9.65;4.57;;;;;;;2.28;93.58;99821.34;8595741;33;21895;-76
2022/02/01 11:55:19;;;;;;;8.88;6.28;;;;;;;2.46;94.07;99820.28;8565909;33;20222;-76
2022/02/01 12:00:36;;;;;;;7.22;4.32;;;;;;;2.33;94.28;99795.41;8589154;33;20413;-76
2022/02/01 12:05:42;;;;;;;8.05;5.53;;;;;;;2.54;93.27;99774.81;8590283;33;20434;-76
2022/02/01 12:10:49;;;;;;;6.25;4.30;;;;;;;2.43;94.62;99786.00;8592191;33;20424;-75
2022/02/01 12:15:55;;;;;;;7.45;5.05;;;;;;;2.25;94.91;99744.63;8568915;33;20501;-74
2022/02/01 12:21:15;;;;;;;8.00;5.78;;;;;;;2.44;94.97;99760.34;8592198;33;20238;-74
2022/02/01 12:26:21;;;;;;;6.70;4.57;;;;;;;2.55;94.94;99720.81;8591147;33;20951;-77
2022/02/01 12:31:26;;;;;;;8.15;5.72;;;;;;;2.78;93.85;99708.88;8591179;33;20229;-74
2022/02/01 12:36:38;;;;;;;7.10;4.15;;;;;;;2.66;94.73;99691.91;8612091;33;20334;-77
2022/02/01 12:41:44;;;;;;;10.10;6.88;;;;;;;2.85;94.64;99678.38;8579844;33;20147;-75
2022/02/01 12:46:54;;;;;;;6.00;4.60;;;;;;;2.82;94.67;99644.94;8604909;33;20557;-75
2022/02/01 12:52:22;;;;;;;7.45;5.32;;;;;;;2.67;95.29;99619.34;8607263;33;20813;-74
2022/02/01 12:57:25;;;;;;;7.22;4.70;;;;;;;2.80;95.02;99619.47;8598984;33;20467;-75
2022/02/01 13:02:31;;;;;;;8.15;5.63;;;;;;;2.86;94.95;99602.34;8625383;33;20451;-74
2022/02/01 13:07:51;;;;;;;6.50;4.70;;;;;;;3.03;93.97;99588.88;8610191;33;20511;-75
2022/02/01 13:13:00;;;;;;;9.55;6.75;;;;;;;3.08;94.25;99583.28;8605198;33;20464;-75
2022/02/01 13:18:17;;;;;;;7.45;4.97;;;;;;;3.18;94.51;99587.03;8605106;33;20636;-75
2022/02/01 13:23:36;;;;;;;7.88;5.07;;;;;;;2.94;96.02;99573.53;8601163;33;20521;-76
2022/02/01 13:28:40;;;;;;;7.18;4.55;;;;;;;3.03;95.45;99541.94;8595228;33;20403;-76
2022/02/01 13:33:48;;;;;;;7.78;5.75;;;;;;;3.28;96.12;99543.03;8600572;33;20410;-73
2022/02/01 13:38:55;;;;;;;4.78;3.75;;;;;;;3.34;95.04;99536.47;8617893;33;20427;-75
2022/02/01 13:44:01;;;;;;;6.38;4.13;;;;;;;3.64;94.14;99533.63;8609368;33;20444;-73
2022/02/01 13:49:07;;;;;;;5.47;3.05;;;;;;;3.48;95.21;99516.06;8599958;33;20437;-74
2022/02/01 13:54:12;;;;;;;4.35;3.00;;;;;;;3.66;93.80;99524.63;8598334;33;20397;-75
2022/02/01 13:59:21;;;;;;;4.38;3.00;;;;;;;3.66;94.98;99534.41;8600801;33;20139;-75
2022/02/01 14:04:28;;;;;;;3.13;2.30;;;;;;;3.50;95.61;99519.47;8612633;33;20143;-75
2022/02/01 14:09:45;;;;;;;3.53;2.30;;;;;;;3.52;95.24;99511.41;8616418;33;20198;-74
2022/02/01 14:25:48;;;;;;;4.25;2.97;;;;;;;3.75;95.06;99509.88;8618192;33;20495;-74
2022/02/01 14:36:12;;;;;;;2.58;1.88;;;;;;;3.91;94.95;99499.91;8606054;33;20151;-74
2022/02/01 14:46:37;;;;;;;2.80;1.98;;;;;;;4.10;95.57;99507.50;8595986;33;20264;-75
2022/02/01 14:51:40;;;;;;;2.70;2.20;;;;;;;4.18;95.50;99514.97;8615761;33;20535;-75
2022/02/01 14:56:49;;;;;;;3.38;2.30;;;;;;;4.41;94.89;99516.03;8615216;33;20541;-76
2022/02/01 15:07:18;;;;;;;3.10;2.65;;;;;;;4.52;96.23;99521.44;8616274;33;20156;-74
2022/02/01 15:12:42;;;;;;;3.35;2.55;;;;;;;4.42;96.35;99495.63;8613493;33;20187;-74
2022/02/01 15:17:45;;;;;;;4.75;3.13;;;;;;;4.55;95.39;99509.75;8604372;33;20409;-75
2022/02/01 15:22:49;;;;;;;4.75;3.20;;;;;;;4.57;95.29;99498.03;8606096;33;20189;-74
2022/02/01 15:27:53;;;;;;;4.47;3.70;;;;;;;4.81;95.05;99498.13;8608880;33;20124;-75
2022/02/01 15:32:57;;;;;;;4.70;2.80;;;;;;;5.05;94.50;99502.69;8605262;33;21195;-74
2022/02/01 15:38:01;;;;;;;7.72;3.65;;;;;;;5.01;93.85;99491.41;8602724;33;20471;-73
2022/02/01 15:54:48;;;;;;;3.30;2.80;;;;;;;5.02;94.57;99494.94;8589285;33;20777;-74
2022/02/01 16:00:20;;;;;;;4.13;2.92;;;;;;;5.17;94.07;99498.28;8595691;33;21349;-73
2022/02/01 16:05:24;;;;;;;5.55;3.05;;;;;;;4.94;94.86;99503.44;8596439;33;20420;-76
2022/02/01 16:10:34;;;;;;;8.40;3.90;;;;;;;5.14;94.50;99482.53;8594011;33;20630;-75
2022/02/01 16:15:39;;;;;;;7.97;3.38;;;;;;;5.23;94.43;99495.16;8594523;33;20672;-74
2022/02/01 16:20:43;;;;;;;3.63;2.25;;;;;;;5.12;94.58;99513.75;8600336;33;20450;-74
2022/02/01 16:25:46;;;;;;;11.48;4.45;;;;;;;5.02;94.31;99498.44;8601131;33;20582;-74
2022/02/01 16:30:51;;;;;;;4.75;2.75;;;;;;;5.37;94.23;99497.66;8601230;33;20378;-76
2022/02/01 16:35:54;;;;;;;6.68;3.85;;;;;;;5.10;94.93;99494.34;8604013;33;20143;-75
2022/02/01 16:41:02;;;;;;;16.13;5.00;;;;;;;5.40;93.55;99507.25;8603532;33;20427;-74
2022/02/01 16:46:08;;;;;;;10.82;4.50;;;;;;;5.43;94.07;99509.69;8599028;33;20406;-75
2022/02/01 16:51:12;;;;;;;15.27;4.55;;;;;;;5.55;93.37;99514.13;8597514;33;20294;-75
2022/02/01 16:56:19;;;;;;;11.25;4.72;;;;;;;5.30;94.16;99493.78;8581744;33;20200;-73
2022/02/01 17:01:40;;;;;;;11.60;5.15;;;;;;;5.54;92.62;99541.75;8591193;33;20501;-76
2022/02/01 17:06:44;;;;;;;13.43;4.33;;;;;;;5.25;93.43;99523.38;8593895;33;20419;-76
2022/02/01 17:12:07;;;;;;;14.38;4.78;;;;;;;5.41;92.68;99538.25;8595627;33;20287;-76
2022/02/01 17:17:24;;;;;;;14.45;5.40;;;;;;;5.84;91.07;99557.28;8599200;33;20155;-75
2022/02/01 17:22:27;;;;;;;15.13;4.90;;;;;;;5.59;91.17;99560.03;8595034;33;20288;-76
2022/02/01 17:27:30;;;;;;;18.08;5.45;;;;;;;5.58;91.33;99576.97;8604303;33;20552;-76
2022/02/01 17:32:35;;;;;;;4.97;2.80;;;;;;;4.97;91.95;99560.91;8604790;33;20485;-76
2022/02/01 17:37:38;;;;;;;10.52;3.53;;;;;;;4.86;92.11;99551.03;8604686;33;20979;-75
2022/02/01 17:42:42;;;;;;;8.90;4.13;;;;;;;5.21;91.66;99537.91;8613133;33;20408;-76
2022/02/01 17:47:50;;;;;;;9.68;3.13;;;;;;;5.05;90.47;99547.94;8605869;33;20765;-76
2022/02/01 17:52:59;;;;;;;8.38;3.28;;;;;;;4.62;92.04;99548.28;8611851;33;20178;-75
2022/02/01 17:58:02;;;;;;;9.25;2.58;;;;;;;4.80;90.67;99564.75;8607143;33;20910;-75
2022/02/01 18:03:07;;;;;;;9.65;3.70;;;;;;;4.67;90.63;99553.28;8606226;33;20425;-75
2022/02/01 18:08:10;;;;;;;9.20;3.20;;;;;;;4.81;90.90;99580.63;8604759;33;20983;-76
2022/02/01 18:13:25;;;;;;;10.85;3.42;;;;;;;4.92;90.74;99600.31;8606173;33;20350;-74
2022/02/01 18:18:35;;;;;;;16.48;3.85;;;;;;;4.52;92.10;99585.28;8610974;33;20434;-76
2022/02/01 18:23:38;;;;;;;13.35;3.75;;;;;;;4.78;90.62;99595.94;8608527;33;20205;-75
2022/02/01 18:28:41;;;;;;;12.30;4.28;;;;;;;4.86;91.12;99619.38;8612490;33;20445;-76
2022/02/01 18:33:46;;;;;;;11.25;3.28;;;;;;;4.61;90.32;99605.09;8619952;33;20400;-75
2022/02/01 18:38:54;;;;;;;14.63;3.90;;;;;;;5.04;88.79;99602.97;8619371;33;20143;-76
2022/02/01 18:43:59;;;;;;;15.32;3.83;;;;;;;4.86;88.08;99584.78;8620958;33;20209;-76
2022/02/01 18:49:11;;;;;;;7.43;3.60;;;;;;;4.86;87.88;99579.47;8623969;33;20242;-76
2022/02/01 18:54:18;;;;;;;12.70;4.70;;;;;;;4.87;88.06;99589.13;8625701;33;20151;-76
2022/02/01 18:59:27;;;;;;;13.52;3.40;;;;;;;5.06;88.32;99594.88;8629310;33;20435;-75
2022/02/01 19:11:44;;;;;;;18.33;4.10;;;;;;;4.72;89.66;99615.84;8626104;33;20362;-75
2022/02/01 19:15:20;;;;;;;14.45;4.70;;;;;;;4.80;89.88;99586.91;8655546;33;20147;-75
2022/02/01 19:20:24;;;;;;;15.32;4.25;;;;;;;4.65;90.20;99611.06;8641324;33;20448;-75
2022/02/01 19:25:30;;;;;;;13.02;4.25;;;;;;;4.82;89.93;99611.56;8616186;33;20438;-74
2022/02/01 19:30:33;;;;;;;16.23;4.57;;;;;;;4.42;91.27;99586.88;8617697;33;20172;-75
2022/02/01 19:35:41;;;;;;;13.13;4.35;;;;;;;4.28;90.28;99584.28;8603577;33;20143;-75
2022/02/01 19:40:46;;;;;;;17.67;4.53;;;;;;;4.30;88.31;99612.47;8600032;33;20179;-74
2022/02/01 19:45:50;;;;;;;18.02;4.65;;;;;;;4.79;86.44;99619.78;8602471;33;20422;-74
2022/02/01 19:50:54;;;;;;;21.85;4.47;;;;;;;4.83;86.63;99631.94;8603800;33;20246;-77
2022/02/01 19:55:59;;;;;;;21.48;5.43;;;;;;;4.64;85.71;99642.13;8609283;33;20504;-75
2022/02/01 20:01:04;;;;;;;20.25;4.13;;;;;;;4.65;84.88;99642.97;8609608;33;21940;-76
2022/02/01 20:06:12;;;;;;;18.05;4.75;;;;;;;4.94;84.37;99635.66;8619714;33;20217;-76
2022/02/01 20:11:16;;;;;;;18.50;5.13;;;;;;;4.91;84.14;99647.38;8612009;33;20252;-76
2022/02/01 20:16:19;;;;;;;24.88;5.72;;;;;;;4.91;84.05;99651.81;8608338;33;20191;-75
2022/02/01 20:21:23;;;;;;;18.52;5.07;;;;;;;5.02;83.72;99670.63;8609185;33;20143;-75
2022/02/01 20:26:26;;;;;;;23.48;4.95;;;;;;;5.06;84.44;99661.44;8610139;33;22488;-76
2022/02/01 20:31:35;;;;;;;27.33;5.70;;;;;;;4.92;84.25;99664.19;8608305;33;20444;-75
2022/02/01 20:36:45;;;;;;;23.60;5.47;;;;;;;5.01;84.11;99659.09;8611662;33;20443;-76
2022/02/01 20:41:48;;;;;;;8.52;3.38;;;;;;;4.81;83.57;99654.28;8606914;33;20338;-75
2022/02/01 20:46:51;;;;;;;28.63;6.20;;;;;;;5.01;82.96;99652.91;8606215;33;20178;-76
2022/02/01 20:51:55;;;;;;;16.15;4.88;;;;;;;4.94;82.43;99620.53;8605290;33;20621;-76
2022/02/01 20:56:59;;;;;;;15.63;5.03;;;;;;;5.15;82.09;99649.28;8609142;33;20510;-75
2022/02/01 21:02:03;;;;;;;22.05;5.28;;;;;;;5.16;81.68;99651.03;8610352;33;20147;-77
2022/02/01 21:07:08;;;;;;;18.00;3.78;;;;;;;4.83;81.96;99655.88;8609277;33;20223;-75
2022/02/01 21:12:11;;;;;;;9.32;3.28;;;;;;;4.69;80.40;99649.78;8582607;33;20232;-76
2022/02/01 21:17:14;;;;;;;13.52;3.38;;;;;;;4.64;80.69;99676.72;8607080;33;20346;-76
2022/02/01 21:22:20;;;;;;;12.75;3.15;;;;;;;4.88;80.04;99694.59;8605635;33;20427;-76
2022/02/01 21:27:23;;;;;;;9.38;3.10;;;;;;;4.44;80.41;99685.16;8573580;33;20218;-75
2022/02/01 21:32:26;;;;;;;8.85;3.17;;;;;;;4.77;79.12;99713.97;8597761;33;20222;-76
2022/02/01 21:37:31;;;;;;;14.82;2.80;;;;;;;4.51;79.67;99681.16;8599725;33;20555;-75
2022/02/01 21:42:38;;;;;;;11.55;2.83;;;;;;;4.59;79.73;99697.44;8579152;33;20161;-75
2022/02/01 21:47:42;;;;;;;16.35;3.65;;;;;;;4.55;80.70;99706.56;8604153;33;20984;-76
2022/02/01 21:52:47;;;;;;;11.90;4.00;;;;;;;4.55;80.52;99726.06;8602891;33;20232;-74
2022/02/01 21:57:50;;;;;;;11.52;3.60;;;;;;;4.64;81.27;99732.56;8599079;33;20579;-74
2022/02/01 22:02:58;;;;;;;10.82;3.28;;;;;;;4.59;82.14;99743.50;8604635;33;20747;-74
2022/02/01 22:08:03;;;;;;;8.88;3.80;;;;;;;4.61;81.95;99746.09;8608535;33;20498;-75
2022/02/01 22:13:06;;;;;;;12.57;3.95;;;;;;;4.31;82.34;99757.78;8619736;33;20234;-76
2022/02/01 22:18:09;;;;;;;15.07;4.10;;;;;;;4.50;81.79;99776.06;8621132;33;20183;-75
2022/02/01 22:23:20;;;;;;;13.05;3.88;;;;;;;4.73;80.74;99786.97;8621896;33;20178;-75
2022/02/01 22:28:26;;;;;;;13.75;3.28;;;;;;;4.44;80.20;99796.84;8625227;33;20714;-75
2022/02/01 22:33:31;;;;;;;15.25;3.55;;;;;;;4.37;79.04;99801.72;8623683;33;20429;-75
2022/02/01 22:38:36;;;;;;;16.20;4.73;;;;;;;4.78;78.61;99798.19;8625063;33;20449;-74
2022/02/01 22:43:40;;;;;;;22.40;4.75;;;;;;;4.57;77.59;99781.81;8623867;33;20621;-76
2022/02/01 22:48:46;;;;;;;16.98;4.90;;;;;;;4.72;77.27;99780.81;8618139;33;20993;-75
2022/02/01 22:53:51;;;;;;;16.58;4.22;;;;;;;4.86;76.18;99787.88;8618832;33;20187;-76
2022/02/01 22:58:57;;;;;;;16.13;4.25;;;;;;;4.63;76.92;99792.03;8618038;33;20440;-75
2022/02/01 23:04:00;;;;;;;22.45;4.53;;;;;;;4.20;83.78;99829.41;8605408;33;20812;-74
2022/02/01 23:09:13;;;;;;;11.30;4.03;;;;;;;3.24;87.86;99830.88;8604579;33;21330;-74
2022/02/01 23:19:46;;;;;;;11.55;2.67;;;;;;;3.30;90.13;99814.56;8602073;33;20194;-75
2022/02/01 23:24:51;;;;;;;13.15;4.18;;;;;;;3.11;90.48;99814.81;8603930;33;20470;-75
2022/02/01 23:29:54;;;;;;;18.33;3.95;;;;;;;2.94;92.24;99809.66;8603196;33;20151;-75
2022/02/01 23:35:04;;;;;;;19.63;4.10;;;;;;;3.11;91.29;99800.69;8591190;33;20158;-75
2022/02/01 23:50:51;;;;;;;26.00;6.53;;;;;;;3.55;90.81;99787.38;8619634;33;20489;-74
2022/02/01 23:56:00;;;;;;;34.22;6.20;;;;;;;3.54;90.98;99784.81;8620566;33;20123;-75
